Time;durP1;ratioP1;P1;durP2;ratioP2;P2;SDS_P1;SDS_P2;PMS_P1;PMS_P2;Temp;Humidity;BMP_temperature;BMP_pressure;BME280_temperature;BME280_humidity;BME280_pressure;Samples;Min_cycle;Max_cycle;Signal;HPM_P1;HPM_P2
2021/04/14 00:00:19;;;;;;;4.27;3.30;;;;;;;1.88;82.15;99278.66;5034226;28;20029;-62
2021/04/14 00:02:44;;;;;;;;;;;;;;;1.88;81.80;99275.25;5035424;28;20033;-62
2021/04/14 00:05:10;;;;;;;4.43;4.00;;;;;;;1.81;81.37;99266.69;5033948;28;19931;-62
2021/04/14 00:07:36;;;;;;;3.90;3.53;;;;;;;1.87;81.53;99276.09;5034243;28;20026;-62
2021/04/14 00:10:02;;;;;;;5.27;4.40;;;;;;;1.81;82.21;99276.78;5037388;28;20041;-62
2021/04/14 00:12:27;;;;;;;5.83;4.80;;;;;;;1.79;82.02;99276.75;5036893;28;20017;-62
2021/04/14 00:14:52;;;;;;;7.63;4.83;;;;;;;1.81;82.63;99275.13;5035278;28;20039;-62
2021/04/14 00:17:18;;;;;;;6.03;3.80;;;;;;;1.81;82.10;99265.00;5031173;28;20378;-62
2021/04/14 00:19:43;;;;;;;5.67;4.57;;;;;;;1.86;82.48;99269.31;5027754;28;20043;-62
2021/04/14 00:22:09;;;;;;;5.17;4.43;;;;;;;1.86;82.31;99266.81;5035223;28;20072;-63
2021/04/14 00:24:36;;;;;;;6.80;4.97;;;;;;;1.87;82.86;99271.88;5032112;28;20329;-62
2021/04/14 00:27:02;;;;;;;7.43;4.70;;;;;;;1.86;82.88;99281.97;5036440;28;20045;-62
2021/04/14 00:29:27;;;;;;;6.17;4.77;;;;;;;1.86;82.50;99275.25;5031540;28;20029;-63
2021/04/14 00:31:53;;;;;;;6.33;4.70;;;;;;;1.88;82.23;99273.59;5029999;28;20326;-63
2021/04/14 00:34:21;;;;;;;4.83;4.13;;;;;;;1.91;82.56;99272.84;5034502;28;20033;-62
2021/04/14 00:36:48;;;;;;;4.10;3.73;;;;;;;1.88;81.31;99271.06;5034764;28;20060;-62
2021/04/14 00:39:21;;;;;;;6.17;4.83;;;;;;;2.00;81.10;99270.50;5034968;28;20034;-62
2021/04/14 00:41:49;;;;;;;9.27;5.57;;;;;;;1.97;81.09;99278.03;5038601;28;20075;-64
2021/04/14 00:44:15;;;;;;;5.67;4.90;;;;;;;1.97;81.71;99275.50;5031724;28;20021;-63
2021/04/14 00:46:41;;;;;;;6.87;5.43;;;;;;;1.91;82.21;99276.19;5033427;28;20037;-62
2021/04/14 00:49:07;;;;;;;7.47;5.43;;;;;;;1.84;82.82;99274.34;5032941;28;20045;-62
2021/04/14 00:51:33;;;;;;;6.90;5.87;;;;;;;1.89;82.28;99274.44;5037545;28;20052;-63
2021/04/14 00:53:59;;;;;;;8.70;6.40;;;;;;;1.90;82.13;99276.16;5043260;28;20022;-63
2021/04/14 00:56:25;;;;;;;7.87;5.60;;;;;;;1.93;82.41;99269.50;5030951;28;20026;-62
2021/04/14 00:58:50;;;;;;;10.33;6.23;;;;;;;1.93;82.56;99276.25;5025901;28;20033;-62
2021/04/14 01:01:15;;;;;;;7.07;5.53;;;;;;;1.93;82.19;99277.09;5033771;28;20040;-62
2021/04/14 01:03:41;;;;;;;7.17;5.27;;;;;;;1.95;82.00;99269.56;5032686;28;20045;-63
2021/04/14 01:06:12;;;;;;;7.97;5.63;;;;;;;2.01;82.34;99260.44;5031896;28;20180;-63
2021/04/14 01:08:38;;;;;;;6.70;5.50;;;;;;;1.95;82.11;99275.47;5026984;28;20038;-62
2021/04/14 01:11:07;;;;;;;10.30;6.20;;;;;;;2.01;81.99;99279.81;5027079;28;20039;-63
2021/04/14 01:13:33;;;;;;;8.03;5.40;;;;;;;1.94;82.44;99271.25;5036298;28;20021;-63
2021/04/14 01:15:58;;;;;;;8.73;5.27;;;;;;;1.94;83.05;99272.91;5033179;28;20071;-61
2021/04/14 01:18:27;;;;;;;7.00;5.27;;;;;;;1.89;82.96;99266.88;5032718;28;20386;-62
2021/04/14 01:20:59;;;;;;;5.60;4.93;;;;;;;1.98;82.23;99267.09;5027158;28;20037;-61
2021/04/14 01:23:29;;;;;;;6.13;4.93;;;;;;;1.98;82.51;99280.59;5031366;28;20141;-62
2021/04/14 01:25:56;;;;;;;4.93;4.43;;;;;;;2.03;81.81;99261.34;5030713;28;20048;-62
2021/04/14 01:28:42;;;;;;;6.07;5.23;;;;;;;2.00;82.45;99273.03;5032339;28;20037;-62
2021/04/14 01:31:12;;;;;;;6.13;5.13;;;;;;;1.97;83.63;99268.78;5031534;28;20044;-62
2021/04/14 01:33:38;;;;;;;6.90;5.60;;;;;;;1.96;83.74;99263.66;5034592;28;20037;-61
2021/04/14 01:36:05;;;;;;;6.53;5.30;;;;;;;2.04;83.07;99257.97;5030469;28;20044;-62
2021/04/14 01:38:31;;;;;;;6.63;4.67;;;;;;;1.99;82.31;99256.19;5032461;28;20036;-62
2021/04/14 01:40:57;;;;;;;6.73;5.17;;;;;;;2.00;82.98;99258.72;5034262;28;20029;-61
2021/04/14 01:43:23;;;;;;;10.03;5.53;;;;;;;1.97;83.08;99261.19;5032093;28;20079;-61
2021/04/14 01:45:49;;;;;;;6.67;5.47;;;;;;;1.94;82.83;99255.22;5035823;28;20025;-61
2021/04/14 01:48:16;;;;;;;7.20;5.23;;;;;;;1.99;82.84;99257.03;5033290;28;20095;-62
2021/04/14 01:50:42;;;;;;;6.10;4.67;;;;;;;1.87;82.78;99250.81;5033710;28;20056;-63
2021/04/14 01:53:10;;;;;;;6.83;4.63;;;;;;;2.02;82.59;99264.69;5032823;28;20363;-62
2021/04/14 01:55:37;;;;;;;7.77;6.27;;;;;;;2.05;83.49;99249.59;5032044;28;20029;-61
2021/04/14 01:58:04;;;;;;;6.63;5.13;;;;;;;2.00;83.00;99257.88;5029067;28;20044;-62
2021/04/14 02:00:36;;;;;;;7.07;4.90;;;;;;;2.07;83.34;99259.75;5033781;28;20029;-61
2021/04/14 02:03:03;;;;;;;6.10;4.60;;;;;;;2.04;82.93;99244.47;5027862;28;20026;-62
2021/04/14 02:05:31;;;;;;;9.13;4.77;;;;;;;2.09;83.10;99246.31;5028900;28;20064;-61
2021/04/14 02:07:57;;;;;;;6.10;4.97;;;;;;;2.08;82.79;99246.31;5031360;28;20061;-62
2021/04/14 02:10:26;;;;;;;6.33;4.30;;;;;;;2.03;83.38;99246.19;5031924;28;20030;-62
2021/04/14 02:12:52;;;;;;;6.90;5.37;;;;;;;2.07;83.06;99249.63;5030761;28;20048;-61
2021/04/14 02:15:21;;;;;;;6.73;5.37;;;;;;;2.00;83.39;99247.75;5033441;28;20366;-61
2021/04/14 02:17:47;;;;;;;5.87;4.90;;;;;;;2.03;82.70;99260.50;5031492;28;20033;-62
2021/04/14 02:20:13;;;;;;;8.30;5.03;;;;;;;2.10;82.54;99252.22;5037516;28;20041;-62
2021/04/14 02:22:39;;;;;;;6.97;5.27;;;;;;;2.07;83.04;99247.09;5036270;28;20072;-62
2021/04/14 02:25:07;;;;;;;8.03;5.53;;;;;;;2.11;82.99;99238.78;5041482;28;20056;-62
2021/04/14 02:27:32;;;;;;;6.80;5.23;;;;;;;2.09;82.48;99251.38;5034369;28;20041;-62
2021/04/14 02:29:57;;;;;;;6.27;5.57;;;;;;;2.04;90.38;99245.34;5028470;28;20040;-62
2021/04/14 02:32:23;;;;;;;6.30;5.17;;;;;;;2.11;93.62;99242.16;5035629;28;20279;-61
2021/04/14 02:34:49;;;;;;;6.87;5.07;;;;;;;2.09;93.84;99240.41;5041491;28;20165;-62
2021/04/14 02:37:14;;;;;;;7.33;5.43;;;;;;;2.19;92.90;99228.03;5035124;28;20040;-63
2021/04/14 02:39:39;;;;;;;11.60;7.00;;;;;;;2.20;83.69;99223.81;5037275;28;20025;-62
2021/04/14 02:42:05;;;;;;;8.87;6.27;;;;;;;2.17;82.37;99231.31;5036017;28;20057;-61
2021/04/14 02:44:31;;;;;;;7.80;6.40;;;;;;;2.14;82.33;99226.19;5037573;28;20063;-62
2021/04/14 02:46:56;;;;;;;9.70;6.90;;;;;;;2.11;81.56;99231.19;5034214;28;20140;-61
2021/04/14 02:49:24;;;;;;;7.77;5.83;;;;;;;2.16;82.36;99233.03;5033747;28;20163;-62
2021/04/14 02:51:50;;;;;;;8.57;6.50;;;;;;;2.14;81.28;99233.78;5037328;28;20461;-62
2021/04/14 02:54:16;;;;;;;11.33;7.43;;;;;;;2.16;81.82;99233.03;5035515;28;20375;-62
2021/04/14 02:56:41;;;;;;;11.60;7.30;;;;;;;2.21;82.33;99233.09;5041132;28;20041;-61
2021/04/14 02:59:07;;;;;;;9.80;6.27;;;;;;;2.14;82.06;99234.66;5034594;28;20084;-64
2021/04/14 03:01:32;;;;;;;10.20;7.80;;;;;;;2.14;81.20;99231.25;5037466;28;20042;-62
2021/04/14 03:04:10;;;;;;;7.67;5.97;;;;;;;2.21;81.84;99228.91;5038155;28;20058;-62
2021/04/14 03:06:35;;;;;;;7.93;5.90;;;;;;;2.19;81.00;99224.63;5028892;28;20033;-62
2021/04/14 03:09:02;;;;;;;10.37;7.07;;;;;;;2.20;81.26;99234.81;5027316;28;20060;-63
2021/04/14 03:11:28;;;;;;;8.07;6.30;;;;;;;2.13;81.78;99227.00;5026639;28;20291;-62
2021/04/14 03:13:54;;;;;;;8.10;5.70;;;;;;;2.17;81.90;99232.19;5026571;28;20051;-62
2021/04/14 03:16:19;;;;;;;6.77;5.73;;;;;;;2.22;80.69;99240.75;5025054;28;20038;-62
2021/04/14 03:18:45;;;;;;;6.93;5.40;;;;;;;2.21;81.12;99222.97;5033184;28;20088;-62
2021/04/14 03:21:10;;;;;;;8.43;5.67;;;;;;;2.19;80.84;99215.38;5027389;28;20088;-64
2021/04/14 03:23:36;;;;;;;10.80;7.70;;;;;;;2.27;80.33;99231.59;5031517;28;20088;-63
2021/04/14 03:26:01;;;;;;;7.53;5.87;;;;;;;2.30;79.87;99233.31;5037858;28;20021;-64
2021/04/14 03:28:26;;;;;;;8.50;6.50;;;;;;;2.33;80.24;99224.97;5036265;28;20267;-62
2021/04/14 03:30:52;;;;;;;12.10;7.10;;;;;;;2.34;79.62;99224.97;5033277;28;20278;-62
2021/04/14 03:33:17;;;;;;;8.17;6.27;;;;;;;2.33;79.53;99230.88;5025154;28;20029;-62
2021/04/14 03:35:43;;;;;;;6.40;5.63;;;;;;;2.32;79.47;99235.91;5034658;28;20120;-63
2021/04/14 03:38:09;;;;;;;7.13;5.53;;;;;;;2.38;79.25;99239.41;5034989;28;20035;-64
2021/04/14 03:40:34;;;;;;;10.20;6.37;;;;;;;2.40;79.89;99235.25;5034689;28;20063;-63
2021/04/14 03:43:00;;;;;;;9.60;5.63;;;;;;;2.36;79.55;99230.94;5031396;28;20030;-64
2021/04/14 03:45:37;;;;;;;10.53;5.53;;;;;;;2.52;79.54;99240.59;5025688;28;20032;-62
2021/04/14 03:48:04;;;;;;;6.87;5.37;;;;;;;2.39;79.34;99240.28;5033096;28;20040;-64
2021/04/14 03:50:30;;;;;;;12.67;6.70;;;;;;;2.35;79.29;99231.75;5035873;28;20029;-64
2021/04/14 03:53:06;;;;;;;10.00;6.23;;;;;;;2.37;78.88;99230.13;5029645;28;20107;-64
2021/04/14 03:55:31;;;;;;;8.93;6.10;;;;;;;2.28;78.88;99235.84;5036187;28;20076;-63
2021/04/14 03:57:59;;;;;;;8.70;6.60;;;;;;;2.36;78.27;99246.13;5037042;28;20094;-64
2021/04/14 04:00:25;;;;;;;10.20;6.57;;;;;;;2.28;78.66;99240.91;5035144;28;20029;-64
2021/04/14 04:02:51;;;;;;;10.30;6.77;;;;;;;2.36;78.19;99247.78;5032064;28;20048;-63
2021/04/14 04:05:16;;;;;;;10.70;6.10;;;;;;;2.26;78.44;99242.50;5028564;28;20082;-63
2021/04/14 04:07:42;;;;;;;9.17;6.17;;;;;;;2.39;78.83;99243.66;5036025;28;20032;-63
2021/04/14 04:10:08;;;;;;;11.67;7.20;;;;;;;2.35;78.19;99252.00;5040762;28;20064;-64
2021/04/14 04:12:34;;;;;;;13.13;6.93;;;;;;;2.35;78.07;99254.53;5035488;28;20025;-63
2021/04/14 04:14:59;;;;;;;10.13;6.33;;;;;;;2.37;77.81;99252.91;5035139;28;20128;-63
2021/04/14 04:17:25;;;;;;;8.17;6.07;;;;;;;2.43;78.13;99260.63;5035485;28;20359;-63
2021/04/14 04:19:50;;;;;;;9.43;6.57;;;;;;;2.38;78.69;99271.47;5039874;28;20049;-63
2021/04/14 04:22:20;;;;;;;9.50;6.87;;;;;;;2.36;78.14;99251.19;5039779;28;20033;-63
2021/04/14 04:24:50;;;;;;;8.33;6.00;;;;;;;2.52;76.81;99262.50;5030418;28;20029;-61
2021/04/14 04:27:16;;;;;;;7.63;6.20;;;;;;;2.42;77.32;99268.19;5040372;28;20032;-63
2021/04/14 04:29:42;;;;;;;11.63;6.87;;;;;;;2.41;77.71;99258.88;5026990;28;20033;-63
2021/04/14 04:32:08;;;;;;;10.17;7.50;;;;;;;2.37;77.77;99260.50;5027681;28;20022;-63
2021/04/14 04:34:34;;;;;;;10.87;7.50;;;;;;;2.39;78.15;99275.69;5036399;28;20143;-63
2021/04/14 04:36:59;;;;;;;12.70;6.73;;;;;;;2.40;78.31;99272.34;5034194;28;20109;-64
2021/04/14 04:39:25;;;;;;;10.13;8.03;;;;;;;2.29;78.55;99256.94;5032204;28;20091;-63
2021/04/14 04:41:50;;;;;;;12.20;8.20;;;;;;;2.37;78.63;99260.50;5031024;28;20029;-63
2021/04/14 04:44:15;;;;;;;11.77;7.50;;;;;;;2.39;78.44;99266.44;5028688;28;20181;-63
2021/04/14 04:46:41;;;;;;;11.83;7.40;;;;;;;2.46;77.60;99263.22;5040046;28;20124;-64
2021/04/14 04:49:07;;;;;;;10.80;7.60;;;;;;;2.46;78.10;99255.63;5028699;28;20091;-63
2021/04/14 04:51:32;;;;;;;17.37;8.50;;;;;;;2.44;78.61;99267.41;5033405;28;20079;-63
2021/04/14 04:53:58;;;;;;;11.87;7.60;;;;;;;2.48;77.61;99269.19;5036144;28;20068;-64
2021/04/14 04:56:23;;;;;;;12.83;7.93;;;;;;;2.55;77.40;99270.16;5033695;28;20025;-64
2021/04/14 04:58:48;;;;;;;12.77;7.83;;;;;;;2.53;77.01;99274.34;5035018;28;20397;-63
2021/04/14 05:01:14;;;;;;;9.47;6.73;;;;;;;2.58;76.06;99277.84;5029890;28;20029;-63
2021/04/14 05:03:40;;;;;;;12.43;5.90;;;;;;;2.67;76.23;99276.34;5031679;28;20049;-63
2021/04/14 05:06:05;;;;;;;14.00;7.33;;;;;;;2.73;76.27;99273.13;5033142;28;20029;-64
2021/04/14 05:08:31;;;;;;;14.30;7.50;;;;;;;2.75;75.97;99285.00;5034786;28;20391;-63
2021/04/14 05:10:56;;;;;;;8.10;6.00;;;;;;;2.78;75.71;99284.19;5035442;28;20025;-64
2021/04/14 05:13:22;;;;;;;9.93;6.73;;;;;;;2.68;76.49;99283.13;5031748;28;20029;-63
2021/04/14 05:15:48;;;;;;;10.23;7.30;;;;;;;2.69;76.55;99282.31;5035369;28;20040;-63
2021/04/14 05:18:14;;;;;;;14.43;9.17;;;;;;;2.74;76.93;99279.91;5035288;28;20025;-63
2021/04/14 05:20:40;;;;;;;11.40;8.37;;;;;;;2.68;77.11;99294.94;5033577;28;20021;-63
2021/04/14 05:23:07;;;;;;;10.20;8.03;;;;;;;2.71;77.39;99287.44;5029269;28;20271;-63
2021/04/14 05:25:36;;;;;;;11.03;8.13;;;;;;;2.66;77.89;99289.00;5030532;28;20267;-64
2021/04/14 05:28:05;;;;;;;10.53;6.63;;;;;;;2.70;77.80;99291.63;5031480;28;20107;-63
2021/04/14 05:30:32;;;;;;;10.43;8.17;;;;;;;2.66;78.48;99296.59;5029506;28;20029;-63
2021/04/14 05:32:57;;;;;;;11.07;7.50;;;;;;;2.55;79.11;99306.44;5028202;28;20083;-63
2021/04/14 05:35:23;;;;;;;15.83;9.00;;;;;;;2.65;79.02;99302.47;5032473;28;20034;-63
2021/04/14 05:37:48;;;;;;;14.63;7.97;;;;;;;2.64;78.42;99301.59;5034087;28;20029;-63
2021/04/14 05:40:15;;;;;;;13.53;8.30;;;;;;;2.78;78.76;99303.59;5031879;28;20029;-63
2021/04/14 05:42:42;;;;;;;11.50;7.87;;;;;;;2.61;78.89;99293.09;5036312;28;20044;-63
2021/04/14 05:45:11;;;;;;;14.07;8.47;;;;;;;2.71;79.02;99295.88;5035382;28;20290;-63
2021/04/14 05:47:37;;;;;;;11.43;6.90;;;;;;;2.90;78.26;99306.41;5031837;28;20405;-63
2021/04/14 05:50:09;;;;;;;9.43;6.00;;;;;;;2.98;77.22;99304.88;5029227;28;20029;-62
2021/04/14 05:52:35;;;;;;;11.83;7.87;;;;;;;2.91;77.69;99296.31;5030310;28;20116;-63
2021/04/14 05:55:00;;;;;;;12.50;7.47;;;;;;;2.77;78.60;99300.22;5040486;28;20112;-63
2021/04/14 05:57:25;;;;;;;13.07;7.10;;;;;;;2.78;78.34;99296.00;5037220;28;20446;-64
2021/04/14 05:59:51;;;;;;;11.63;8.70;;;;;;;2.73;78.40;99301.81;5037691;28;20382;-64
2021/04/14 06:02:16;;;;;;;9.37;6.67;;;;;;;2.78;78.26;99294.34;5035604;28;20022;-64
2021/04/14 06:04:42;;;;;;;10.10;7.97;;;;;;;2.87;78.45;99292.00;5035545;28;20399;-64
2021/04/14 06:07:07;;;;;;;14.07;8.47;;;;;;;2.80;78.25;99297.72;5036839;28;20389;-64
2021/04/14 06:09:33;;;;;;;11.70;7.77;;;;;;;2.93;78.13;99297.19;5039080;28;20033;-63
2021/04/14 06:11:59;;;;;;;13.43;6.70;;;;;;;2.83;78.38;99289.38;5037203;28;20022;-63
2021/04/14 06:14:24;;;;;;;10.97;7.50;;;;;;;2.81;78.32;99284.25;5034418;28;20033;-65
2021/04/14 06:16:50;;;;;;;10.67;6.53;;;;;;;2.77;78.31;99295.16;5028155;28;20512;-63
2021/04/14 06:19:15;;;;;;;8.83;7.13;;;;;;;2.78;77.50;99307.00;5029261;28;20045;-62
2021/04/14 06:21:41;;;;;;;13.13;6.73;;;;;;;2.90;77.87;99293.75;5032723;28;20494;-63
2021/04/14 06:24:07;;;;;;;9.93;6.73;;;;;;;2.93;78.28;99291.28;5033924;28;20115;-63
2021/04/14 06:28:58;;;;;;;8.80;7.10;;;;;;;2.88;78.72;99308.06;5030500;28;20030;-62
2021/04/14 06:31:25;;;;;;;11.57;7.07;;;;;;;2.99;79.76;99304.94;5035069;28;20147;-62
2021/04/14 06:33:53;;;;;;;9.50;6.70;;;;;;;3.02;76.88;99306.66;5033391;28;20061;-62
2021/04/14 06:36:19;;;;;;;8.77;6.90;;;;;;;2.97;78.04;99296.44;5025781;28;20044;-62
2021/04/14 06:38:47;;;;;;;8.73;7.10;;;;;;;3.09;78.71;99308.53;5028339;28;20314;-62
2021/04/14 06:44:09;;;;;;;9.97;6.57;;;;;;;3.26;77.25;99311.41;5029954;28;20029;-62
2021/04/14 06:46:36;;;;;;;7.83;6.40;;;;;;;3.15;76.72;99303.56;5029225;28;20055;-62
2021/04/14 06:49:25;;;;;;;10.10;6.90;;;;;;;3.18;76.97;99316.31;5029536;28;20025;-61
2021/04/14 06:52:03;;;;;;;11.50;8.53;;;;;;;3.23;77.49;99299.53;5026967;28;20068;-61
2021/04/14 06:54:51;;;;;;;8.53;6.33;;;;;;;3.36;75.31;99313.28;5029191;28;20041;-62
2021/04/14 06:57:29;;;;;;;8.80;7.53;;;;;;;3.47;77.08;99296.66;5036551;28;20032;-62
2021/04/14 07:00:02;;;;;;;10.07;6.93;;;;;;;3.53;77.18;99302.69;5032498;28;20045;-61
2021/04/14 07:02:41;;;;;;;10.13;6.80;;;;;;;3.48;75.64;99304.25;5011163;28;20386;-61
2021/04/14 07:05:20;;;;;;;8.43;5.83;;;;;;;3.69;75.58;99309.75;5031594;28;20042;-61
2021/04/14 07:07:49;;;;;;;8.97;6.47;;;;;;;3.66;74.75;99314.75;5038160;28;20036;-61
2021/04/14 07:10:36;;;;;;;8.73;5.40;;;;;;;3.83;73.58;99302.41;5034289;28;20052;-61
2021/04/14 07:13:05;;;;;;;10.73;6.53;;;;;;;3.92;75.19;99311.88;5038599;28;20426;-61
2021/04/14 07:15:32;;;;;;;10.33;6.37;;;;;;;3.98;74.86;99299.31;5032773;28;20040;-61
2021/04/14 07:18:16;;;;;;;11.70;6.13;;;;;;;4.12;73.19;99293.63;5036405;28;20061;-61
2021/04/14 07:20:52;;;;;;;14.30;7.60;;;;;;;4.23;74.13;99306.50;5041510;28;20076;-61
2021/04/14 07:23:42;;;;;;;7.60;6.53;;;;;;;4.32;72.28;99299.06;5034237;28;20099;-62
2021/04/14 07:26:16;;;;;;;8.93;6.80;;;;;;;4.49;73.33;99301.88;5037322;28;20319;-61
2021/04/14 07:29:03;;;;;;;7.77;6.27;;;;;;;4.55;72.90;99310.41;5036213;28;20108;-61
2021/04/14 07:31:44;;;;;;;8.33;6.17;;;;;;;4.34;70.85;99312.59;5032062;28;20026;-61
2021/04/14 07:34:31;;;;;;;12.00;6.97;;;;;;;4.35;72.22;99314.31;5031647;28;20080;-63
2021/04/14 07:37:11;;;;;;;11.40;8.33;;;;;;;4.54;72.91;99318.03;5039641;28;20037;-61
2021/04/14 07:40:11;;;;;;;7.53;5.97;;;;;;;4.52;69.89;99333.22;5039421;28;20029;-61
2021/04/14 07:43:13;;;;;;;9.50;6.73;;;;;;;4.33;71.67;99322.75;5036788;28;20373;-63
2021/04/14 07:45:39;;;;;;;10.53;6.80;;;;;;;4.37;72.95;99332.13;4959100;29;20058;-61
2021/04/14 07:48:08;;;;;;;10.10;7.63;;;;;;;4.62;72.23;99325.75;4958385;28;20392;-61
2021/04/14 07:50:41;;;;;;;9.57;7.63;;;;;;;4.69;72.22;99336.03;4958286;28;20411;-62
2021/04/14 07:53:23;;;;;;;8.50;6.60;;;;;;;4.84;71.50;99333.72;4957849;28;20364;-61
2021/04/14 07:56:18;;;;;;;9.70;7.53;;;;;;;4.73;72.04;99332.72;4956387;29;20055;-62
2021/04/14 07:58:44;;;;;;;8.63;6.60;;;;;;;4.72;71.61;99325.91;4956178;29;20037;-62
2021/04/14 08:01:23;;;;;;;11.50;7.60;;;;;;;4.64;71.84;99344.41;4954875;28;20043;-61
2021/04/14 08:03:50;;;;;;;10.47;7.60;;;;;;;4.57;72.09;99346.00;4955636;28;20047;-61
2021/04/14 08:06:27;;;;;;;8.83;6.77;;;;;;;4.71;71.81;99339.44;4937461;28;20051;-62
2021/04/14 08:08:53;;;;;;;9.70;6.63;;;;;;;4.60;71.43;99336.75;4953091;28;20054;-62
2021/04/14 08:11:32;;;;;;;12.43;7.60;;;;;;;4.59;71.85;99336.72;4955536;28;20069;-62
2021/04/14 08:14:20;;;;;;;11.17;6.97;;;;;;;4.68;72.83;99331.78;4955382;28;20046;-62
2021/04/14 08:16:50;;;;;;;11.13;6.63;;;;;;;4.63;70.79;99329.97;4953210;28;20436;-62
2021/04/14 08:19:17;;;;;;;11.33;8.10;;;;;;;4.94;71.24;99340.66;4955821;28;20035;-62
2021/04/14 08:22:06;;;;;;;10.80;8.27;;;;;;;5.35;70.63;99337.81;4977601;28;20450;-62
2021/04/14 08:24:39;;;;;;;8.60;7.63;;;;;;;5.47;70.98;99338.00;5031749;28;20042;-62
2021/04/14 08:27:20;;;;;;;12.90;7.87;;;;;;;5.30;71.41;99330.16;5034239;28;20360;-62
2021/04/14 08:30:07;;;;;;;11.63;8.40;;;;;;;5.68;70.13;99338.25;5036826;28;20096;-62
2021/04/14 08:32:51;;;;;;;11.00;6.40;;;;;;;5.53;68.81;99338.91;5030928;28;20029;-61
2021/04/14 08:35:39;;;;;;;9.17;7.50;;;;;;;5.76;68.96;99318.00;5033368;28;20371;-61
2021/04/14 08:38:15;;;;;;;7.67;6.63;;;;;;;5.84;67.86;99332.50;5037871;28;20116;-61
2021/04/14 08:40:52;;;;;;;6.97;5.70;;;;;;;5.75;67.43;99321.38;5035512;28;20303;-61
2021/04/14 08:43:26;;;;;;;12.53;6.60;;;;;;;5.75;66.99;99324.75;5028611;28;20025;-61
2021/04/14 08:45:52;;;;;;;7.80;5.27;;;;;;;5.78;66.52;99329.03;5030263;28;20036;-62
2021/04/14 08:48:30;;;;;;;9.63;7.07;;;;;;;5.76;66.86;99329.03;5037588;28;20030;-63
2021/04/14 08:50:59;;;;;;;9.53;6.30;;;;;;;5.93;66.33;99331.78;5034039;28;20143;-62
2021/04/14 08:53:32;;;;;;;8.33;5.83;;;;;;;5.92;66.78;99315.66;5034364;28;20293;-62
2021/04/14 08:55:59;;;;;;;8.17;6.20;;;;;;;5.74;66.14;99322.19;5035692;28;20311;-62
2021/04/14 08:58:25;;;;;;;10.37;6.67;;;;;;;5.91;66.31;99311.41;5035865;28;20103;-62
2021/04/14 09:00:51;;;;;;;8.77;7.10;;;;;;;5.91;65.53;99310.53;5042858;28;20033;-61
2021/04/14 09:03:26;;;;;;;10.53;6.83;;;;;;;6.40;64.97;99307.63;5034515;28;20048;-62
2021/04/14 09:05:52;;;;;;;7.90;5.65;;;;;;;6.64;64.21;99311.19;5031180;28;20042;-63
2021/04/14 09:08:24;;;;;;;9.43;7.30;;;;;;;6.78;64.88;99319.81;5033673;28;20191;-63
2021/04/14 09:10:59;;;;;;;11.03;7.43;;;;;;;6.35;66.20;99322.03;5031543;28;20033;-62
2021/04/14 09:13:32;;;;;;;10.07;7.83;;;;;;;6.19;69.49;99327.81;5037063;28;20025;-62
2021/04/14 09:16:00;;;;;;;10.03;7.97;;;;;;;5.41;72.35;99340.44;5035628;28;20056;-61
2021/04/14 09:18:37;;;;;;;9.43;6.93;;;;;;;4.85;75.27;99337.97;5033370;28;20141;-62
2021/04/14 09:21:14;;;;;;;11.87;7.60;;;;;;;4.54;76.91;99329.00;5031586;28;20057;-61
2021/04/14 09:23:53;;;;;;;12.37;8.73;;;;;;;4.37;78.00;99329.59;5025092;28;20326;-61
2021/04/14 09:26:27;;;;;;;11.43;7.77;;;;;;;4.26;78.83;99331.94;5015848;28;20052;-61
2021/04/14 09:28:53;;;;;;;10.90;8.07;;;;;;;4.30;78.48;99328.63;5016431;28;20037;-61
2021/04/14 09:31:40;;;;;;;14.43;9.80;;;;;;;4.51;78.67;99325.56;5026338;28;20497;-62
2021/04/14 09:34:16;;;;;;;16.20;10.13;;;;;;;4.69;76.53;99317.41;5034879;28;20302;-62
2021/04/14 09:36:51;;;;;;;12.40;9.07;;;;;;;4.88;76.10;99320.22;5035066;28;20388;-62
2021/04/14 09:39:53;;;;;;;15.98;9.52;;;;;;;5.31;75.37;99320.81;5032205;28;20018;-63
2021/04/14 09:42:28;;;;;;;15.17;9.63;;;;;;;5.35;73.56;99312.38;5034524;28;20037;-63
2021/04/14 09:44:55;;;;;;;;;;;;;;;5.44;74.58;99310.81;5031586;28;20030;-63
2021/04/14 09:47:23;;;;;;;12.43;9.30;;;;;;;5.48;74.38;99320.19;5034506;28;20041;-62
2021/04/14 09:49:50;;;;;;;12.87;9.13;;;;;;;5.44;73.34;99320.13;5034389;28;20024;-63
2021/04/14 09:52:26;;;;;;;9.13;8.07;;;;;;;5.04;73.15;99352.66;5033968;28;20053;-62
2021/04/14 09:54:57;;;;;;;12.60;9.03;;;;;;;4.68;75.17;99344.47;5033662;28;20053;-62
2021/04/14 09:57:31;;;;;;;10.67;7.57;;;;;;;4.11;75.25;99327.47;5029983;28;20114;-62
2021/04/14 09:59:58;;;;;;;12.00;6.80;;;;;;;3.58;77.97;99338.25;5032498;28;20493;-61
2021/04/14 10:02:26;;;;;;;10.53;7.70;;;;;;;3.53;80.43;99338.16;5034373;28;20048;-61
2021/04/14 10:04:52;;;;;;;14.00;7.83;;;;;;;3.21;81.78;99334.97;5026431;28;20144;-60
2021/04/14 10:07:29;;;;;;;17.23;7.93;;;;;;;3.51;82.94;99329.69;5014897;28;20065;-61
2021/04/14 10:10:17;;;;;;;12.77;8.70;;;;;;;3.88;84.12;99335.47;5016946;28;20056;-61
2021/04/14 10:12:43;;;;;;;16.13;9.53;;;;;;;4.31;85.80;99329.47;5014091;28;20044;-60
2021/04/14 10:15:10;;;;;;;10.23;7.57;;;;;;;3.86;81.32;99335.41;5014752;28;20053;-61
2021/04/14 10:17:36;;;;;;;13.77;8.73;;;;;;;3.72;82.19;99349.53;5014011;28;20026;-61
2021/04/14 10:20:15;;;;;;;11.03;7.97;;;;;;;3.27;86.70;99357.03;5014890;28;20040;-61
2021/04/14 10:22:44;;;;;;;14.60;8.00;;;;;;;3.18;88.24;99352.63;5011084;28;20033;-60
2021/04/14 10:25:30;;;;;;;10.47;7.43;;;;;;;3.05;87.64;99353.19;5014290;28;20026;-61
2021/04/14 10:28:06;;;;;;;15.60;9.03;;;;;;;2.88;86.14;99357.03;5027266;28;20076;-61
2021/04/14 10:30:36;;;;;;;12.83;8.07;;;;;;;2.73;86.15;99341.47;5001084;28;20092;-61
2021/04/14 10:33:05;;;;;;;10.23;5.97;;;;;;;2.69;86.02;99334.63;4992725;28;20025;-61
2021/04/14 10:35:32;;;;;;;10.47;6.30;;;;;;;2.83;86.48;99327.34;5012396;28;20042;-62
2021/04/14 10:37:58;;;;;;;12.13;7.67;;;;;;;3.03;85.41;99328.66;5010736;28;20026;-61
2021/04/14 10:40:26;;;;;;;10.87;6.93;;;;;;;3.47;85.57;99317.78;5013704;28;20683;-62
2021/04/14 10:42:55;;;;;;;14.03;8.03;;;;;;;3.88;85.81;99315.16;5013724;28;20045;-62
2021/04/14 10:45:22;;;;;;;13.83;8.23;;;;;;;4.05;84.40;99307.03;5015619;28;20513;-60
2021/04/14 10:47:52;;;;;;;12.97;7.53;;;;;;;4.17;84.32;99301.31;5016537;28;20030;-61
2021/04/14 10:50:30;;;;;;;18.73;9.67;;;;;;;4.71;84.07;99301.34;5031257;28;20354;-61
2021/04/14 10:53:06;;;;;;;14.90;9.87;;;;;;;5.31;84.03;99303.88;5029348;28;20454;-61
2021/04/14 10:55:36;;;;;;;12.33;8.57;;;;;;;5.24;79.48;99313.94;5017284;28;20021;-62
2021/04/14 10:58:04;;;;;;;13.20;8.13;;;;;;;5.52;78.57;99299.06;5017153;28;20076;-62
2021/04/14 11:00:36;;;;;;;11.03;7.47;;;;;;;5.18;78.43;99306.25;5014739;28;20670;-62
2021/04/14 11:03:10;;;;;;;8.83;6.23;;;;;;;5.09;78.68;99304.44;5014894;28;20061;-61
2021/04/14 11:05:55;;;;;;;8.63;6.50;;;;;;;5.36;77.69;99284.44;5046007;28;20080;-62
2021/04/14 11:08:21;;;;;;;9.05;5.97;;;;;;;5.27;75.86;99298.72;5055322;28;20035;-61
2021/04/14 11:10:48;;;;;;;7.97;5.73;;;;;;;4.94;78.19;99305.09;5035769;28;20092;-61
2021/04/14 11:13:18;;;;;;;8.00;6.27;;;;;;;5.09;77.19;99324.78;5056775;28;20115;-62
2021/04/14 11:15:47;;;;;;;7.50;5.93;;;;;;;4.48;78.06;99317.91;5056406;28;20033;-61
2021/04/14 11:18:15;;;;;;;7.63;5.37;;;;;;;4.22;77.75;99307.34;5057057;28;20036;-62
2021/04/14 11:21:06;;;;;;;9.50;7.63;;;;;;;4.24;80.04;99310.75;5039531;28;20047;-62
2021/04/14 11:23:34;;;;;;;8.03;4.77;;;;;;;4.19;78.12;99298.81;5058058;28;20123;-61
2021/04/14 11:26:26;;;;;;;7.03;4.00;;;;;;;4.17;76.19;99329.22;5055494;28;20029;-61
2021/04/14 11:28:54;;;;;;;7.20;3.03;;;;;;;4.14;74.79;99306.34;5054366;28;20397;-61
2021/04/14 11:31:43;;;;;;;5.30;3.87;;;;;;;4.28;75.39;99298.97;5057075;28;20021;-61
2021/04/14 11:34:33;;;;;;;7.93;4.10;;;;;;;4.75;76.62;99300.59;5053445;28;20363;-61
2021/04/14 11:37:20;;;;;;;4.87;4.23;;;;;;;4.94;76.21;99306.75;5054275;28;20067;-62
2021/04/14 11:39:51;;;;;;;7.90;4.60;;;;;;;5.34;76.89;99300.53;5054357;28;20112;-62
2021/04/14 11:42:23;;;;;;;6.83;4.70;;;;;;;5.31;71.92;99293.72;5055173;28;20033;-62
2021/04/14 11:44:59;;;;;;;11.33;7.40;;;;;;;5.30;72.76;99291.16;5055434;28;20106;-62
2021/04/14 11:47:34;;;;;;;7.57;4.80;;;;;;;5.25;72.34;99292.78;5055006;28;20381;-62
2021/04/14 11:50:32;;;;;;;9.90;5.40;;;;;;;5.76;74.15;99287.47;5055259;28;20055;-63
2021/04/14 11:52:59;;;;;;;6.03;3.97;;;;;;;5.55;69.40;99289.75;5042017;28;20029;-63
2021/04/14 11:55:28;;;;;;;5.80;4.43;;;;;;;5.58;69.76;99287.25;5040279;28;20032;-61
2021/04/14 11:58:18;;;;;;;8.37;4.30;;;;;;;5.40;69.12;99306.53;5054410;28;20028;-62